Time,TemperatureF,DewpointF,PressureIn,WindDirection,WindDirectionDegrees,WindSpeedMPH,WindSpeedGustMPH,Humidity,HourlyPrecipIn,Conditions,Clouds,dailyrainin,SoftwareType,DateUTC
2013-02-02 00:02:00,45.0,33.0,-100.00,SW,235,2.0,6.0,62,-99.99,,,-99.99,,2013-02-02 00:02:00,
2013-02-02 00:10:00,43.0,32.0,-100.00,NNW,330,1.0,3.0,64,-99.99,,,-99.99,,2013-02-02 00:10:00,
2013-02-02 01:02:00,43.0,32.0,-100.00,NNW,330,1.0,3.0,64,-99.99,,,-99.99,,2013-02-02 01:02:00,
2013-02-02 01:10:00,35.0,29.0,-100.00,SSE,165,0.0,2.0,78,-99.99,,,-99.99,,2013-02-02 01:10:00,
2013-02-02 02:01:00,35.0,29.0,-100.00,SSE,165,0.0,2.0,78,-99.99,,,-99.99,,2013-02-02 02:01:00,
2013-02-02 02:10:00,32.0,30.0,-100.00,NE,50,0.0,2.0,92,-99.99,,,-99.99,,2013-02-02 02:10:00,
2013-02-02 03:02:00,32.0,30.0,-100.00,NE,50,0.0,2.0,92,-99.99,,,-99.99,,2013-02-02 03:02:00,
2013-02-02 03:10:00,30.0,28.0,-100.00,SE,140,0.0,1.0,92,-99.99,,,-99.99,,2013-02-02 03:10:00,
2013-02-02 04:01:00,30.0,28.0,-100.00,SE,140,0.0,1.0,92,-99.99,,,-99.99,,2013-02-02 04:01:00,
2013-02-02 04:10:00,29.0,29.0,-100.00,NNW,345,1.0,2.0,100,-99.99,,,-99.99,,2013-02-02 04:10:00,
2013-02-02 05:03:00,29.0,29.0,-100.00,NNW,345,1.0,2.0,100,-99.99,,,-99.99,,2013-02-02 05:03:00,
2013-02-02 05:10:00,30.0,29.0,-100.00,NW,310,1.0,2.0,96,-99.99,,,-99.99,,2013-02-02 05:10:00,
2013-02-02 06:02:00,30.0,29.0,-100.00,NW,310,1.0,2.0,96,-99.99,,,-99.99,,2013-02-02 06:02:00,
2013-02-02 06:10:00,29.0,29.0,-100.00,North,350,1.0,2.0,100,-99.99,,,-99.99,,2013-02-02 06:10:00,
2013-02-02 07:02:00,29.0,29.0,-100.00,North,350,1.0,2.0,100,-99.99,,,-99.99,,2013-02-02 07:02:00,
2013-02-02 07:10:00,29.0,28.0,-100.00,SSE,155,0.0,2.0,95,-99.99,,,-99.99,,2013-02-02 07:10:00,
2013-02-02 08:01:00,29.0,28.0,-100.00,SSE,155,0.0,2.0,95,-99.99,,,-99.99,,2013-02-02 08:01:00,
2013-02-02 08:10:00,28.0,28.0,-100.00,North,-999,0.0,0.0,100,-99.99,,,-99.99,,2013-02-02 08:10:00,
2013-02-02 09:01:00,28.0,28.0,-100.00,North,-999,0.0,0.0,100,-99.99,,,-99.99,,2013-02-02 09:01:00,
2013-02-02 09:10:00,28.0,28.0,-100.00,ESE,120,1.0,2.0,100,-99.99,,,-99.99,,2013-02-02 09:10:00,
2013-02-02 10:01:00,28.0,28.0,-100.00,ESE,120,1.0,2.0,100,-99.99,,,-99.99,,2013-02-02 10:01:00,
2013-02-02 10:10:00,29.0,29.0,-100.00,NE,55,1.0,2.0,100,-99.99,,,-99.99,,2013-02-02 10:10:00,
2013-02-02 11:01:00,29.0,29.0,-100.00,NE,55,1.0,2.0,100,-99.99,,,-99.99,,2013-02-02 11:01:00,
2013-02-02 11:10:00,29.0,29.0,-100.00,NNE,30,3.0,5.0,100,-99.99,,,-99.99,,2013-02-02 11:10:00,
2013-02-02 12:01:00,29.0,29.0,-100.00,NNE,30,3.0,5.0,100,-99.99,,,-99.99,,2013-02-02 12:01:00,
2013-02-02 12:10:00,28.0,28.0,-100.00,NE,50,2.0,5.0,100,-99.99,,,-99.99,,2013-02-02 12:10:00,
2013-02-02 13:02:00,28.0,28.0,-100.00,NE,50,2.0,5.0,100,-99.99,,,-99.99,,2013-02-02 13:02:00,
2013-02-02 13:10:00,27.0,27.0,-100.00,NE,35,3.0,5.0,100,-99.99,,,-99.99,,2013-02-02 13:10:00,
2013-02-02 14:02:00,27.0,27.0,-100.00,NE,35,3.0,5.0,100,-99.99,,,-99.99,,2013-02-02 14:02:00,
2013-02-02 16:10:00,28.0,28.0,-100.00,NE,40,1.0,3.0,100,-99.99,,,-99.99,,2013-02-02 16:10:00,
2013-02-02 17:02:00,28.0,28.0,-100.00,NE,40,1.0,3.0,100,-99.99,,,-99.99,,2013-02-02 17:02:00,
2013-02-02 17:10:00,29.0,29.0,-100.00,ENE,75,3.0,6.0,100,-99.99,,,-99.99,,2013-02-02 17:10:00,
2013-02-02 18:02:00,29.0,29.0,-100.00,ENE,75,3.0,6.0,100,-99.99,,,-99.99,,2013-02-02 18:02:00,
2013-02-02 18:10:00,30.0,30.0,-100.00,NE,45,3.0,7.0,100,-99.99,,,-99.99,,2013-02-02 18:10:00,
2013-02-02 19:02:00,30.0,30.0,-100.00,NE,45,3.0,7.0,100,-99.99,,,-99.99,,2013-02-02 19:02:00,
2013-02-02 19:10:00,30.0,30.0,-100.00,NE,50,5.0,8.0,100,-99.99,,,-99.99,,2013-02-02 19:10:00,
2013-02-02 20:01:00,30.0,30.0,-100.00,NE,50,5.0,8.0,100,-99.99,,,-99.99,,2013-02-02 20:01:00,
2013-02-02 20:10:00,31.0,31.0,-100.00,NE,55,2.0,7.0,100,-99.99,,,-99.99,,2013-02-02 20:10:00,
2013-02-02 21:02:00,31.0,31.0,-100.00,NE,55,2.0,7.0,100,-99.99,,,-99.99,,2013-02-02 21:02:00,
2013-02-02 21:10:00,31.0,31.0,-100.00,NNE,25,3.0,8.0,100,-99.99,,,-99.99,,2013-02-02 21:10:00,
2013-02-02 22:02:00,31.0,31.0,-100.00,NNE,25,3.0,8.0,100,-99.99,,,-99.99,,2013-02-02 22:02:00,
2013-02-02 23:10:00,33.0,33.0,-100.00,NNE,15,5.0,7.0,100,-99.99,,,-99.99,,2013-02-02 23:10:00,